createdAt,value
2023-03-17T00:02:13.235Z,29.80
2023-03-17T00:07:18.456Z,24.10
2023-03-17T00:12:21.869Z,26.50
2023-03-17T00:17:25.387Z,27.90
2023-03-17T00:22:29.005Z,27.80
2023-03-17T00:27:33.341Z,25.70
2023-03-17T00:37:41.906Z,21.70
2023-03-17T00:42:46.361Z,23.00
2023-03-17T00:47:51.629Z,20.70
2023-03-17T00:52:57.143Z,18.20
2023-03-17T00:58:00.871Z,16.90
2023-03-17T01:03:04.177Z,19.10
2023-03-17T01:08:09.383Z,18.30
2023-03-17T01:13:13.977Z,17.60
2023-03-17T01:18:19.948Z,16.70
2023-03-17T01:23:23.358Z,17.80
2023-03-17T01:28:26.566Z,16.30
2023-03-17T01:33:29.990Z,12.80
2023-03-17T01:38:33.303Z,16.90
2023-03-17T01:43:36.919Z,16.30
2023-03-17T01:48:51.591Z,15.00
2023-03-17T01:53:56.025Z,16.60
2023-03-17T01:59:05.992Z,15.80
2023-03-17T02:04:11.522Z,16.30
2023-03-17T02:09:14.969Z,16.20
2023-03-17T02:14:18.284Z,14.10
2023-03-17T02:19:21.895Z,14.80
2023-03-17T02:24:32.378Z,16.20
2023-03-17T02:29:38.005Z,15.20
2023-03-17T02:34:41.356Z,14.60
2023-03-17T02:39:44.782Z,14.70
2023-03-17T02:44:48.794Z,15.40
2023-03-17T02:49:52.833Z,14.30
2023-03-17T02:54:56.444Z,15.30
2023-03-17T02:59:59.753Z,12.00
2023-03-17T03:05:03.884Z,12.20
2023-03-17T03:10:07.916Z,11.30
2023-03-17T03:15:11.895Z,12.20
2023-03-17T03:20:15.149Z,13.20
2023-03-17T03:25:18.765Z,13.30
2023-03-17T03:30:21.972Z,10.70
2023-03-17T03:47:09.491Z,12.80
2023-03-17T03:52:12.699Z,13.10
2023-03-17T03:57:16.986Z,12.70
2023-03-17T04:07:24.370Z,12.60
2023-03-17T04:12:27.681Z,12.10
2023-03-17T04:17:30.898Z,12.50
2023-03-17T04:22:34.813Z,13.30
2023-03-17T04:27:38.534Z,12.70
2023-03-17T04:32:42.134Z,12.90
2023-03-17T04:37:46.183Z,12.30
2023-03-17T04:42:49.398Z,12.70
2023-03-17T04:47:52.705Z,12.50
2023-03-17T04:52:56.009Z,14.10
2023-03-17T04:57:59.221Z,14.00
2023-03-17T05:03:02.428Z,14.40
2023-03-17T05:08:06.013Z,13.90
2023-03-17T05:13:09.256Z,12.70
2023-03-17T05:18:12.538Z,14.20
2023-03-17T05:23:15.874Z,13.30
2023-03-17T05:28:21.134Z,13.10
2023-03-17T05:33:24.851Z,13.10
2023-03-17T05:38:28.513Z,12.90
2023-03-17T05:43:31.982Z,13.90
2023-03-17T05:48:35.705Z,13.80
2023-03-17T05:53:38.896Z,13.60
2023-03-17T05:58:42.080Z,13.50
2023-03-17T06:03:45.325Z,12.90
2023-03-17T06:08:48.642Z,12.90
2023-03-17T06:13:51.955Z,14.50
2023-03-17T06:18:55.117Z,15.50
2023-03-17T06:23:58.728Z,16.80
2023-03-17T06:29:02.498Z,23.30
2023-03-17T06:34:06.017Z,26.00
2023-03-17T06:39:09.839Z,17.50
2023-03-17T06:44:13.459Z,13.80
2023-03-17T06:49:17.072Z,12.20
2023-03-17T06:54:21.622Z,10.20
2023-03-17T06:59:25.332Z,12.30
2023-03-17T07:04:28.676Z,14.10
2023-03-17T07:09:35.846Z,13.30
2023-03-17T07:14:39.359Z,13.20
2023-03-17T07:19:43.181Z,11.60
2023-03-17T07:24:49.395Z,10.40
2023-03-17T07:29:53.491Z,11.60
2023-03-17T07:34:57.441Z,12.20
2023-03-17T07:40:00.726Z,10.40
2023-03-17T07:45:06.285Z,9.90
2023-03-17T07:50:11.126Z,9.00
2023-03-17T07:55:14.345Z,10.00
2023-03-17T08:00:18.163Z,9.80
2023-03-17T08:05:22.089Z,9.20
2023-03-17T08:10:25.705Z,8.90
2023-03-17T08:15:31.206Z,9.00
2023-03-17T08:20:35.140Z,7.60
2023-03-17T08:25:39.038Z,9.10
2023-03-17T08:30:44.876Z,8.10
2023-03-17T08:35:48.514Z,7.70
2023-03-17T08:40:52.552Z,7.10
2023-03-17T08:46:14.215Z,6.60
2023-03-17T08:51:20.837Z,6.00
2023-03-17T08:56:25.715Z,6.80
2023-03-17T09:01:29.249Z,6.90
2023-03-17T09:06:32.847Z,5.20
2023-03-17T09:11:36.162Z,4.90
2023-03-17T09:16:39.468Z,6.00
2023-03-17T09:21:42.989Z,6.00
2023-03-17T09:26:46.296Z,5.80
2023-03-17T09:31:49.507Z,3.50
2023-03-17T09:36:56.398Z,5.40
2023-03-17T09:42:15.792Z,6.20
2023-03-17T09:47:54.158Z,5.00
2023-03-17T09:52:58.780Z,5.10
2023-03-17T09:58:03.704Z,5.80
2023-03-17T10:03:11.412Z,4.60
2023-03-17T10:08:32.441Z,5.50
2023-03-17T10:13:58.391Z,5.00
2023-03-17T10:19:21.974Z,4.90
2023-03-17T10:24:27.359Z,5.00
2023-03-17T10:29:32.710Z,4.30
2023-03-17T10:34:38.262Z,5.10
2023-03-17T10:40:11.666Z,4.50
2023-03-17T10:45:22.359Z,4.90
2023-03-17T10:50:34.916Z,4.80
2023-03-17T10:55:38.295Z,5.20
2023-03-17T11:01:03.788Z,4.80
2023-03-17T11:06:10.913Z,5.30
2023-03-17T11:11:35.764Z,4.80
2023-03-17T11:16:42.608Z,5.40
2023-03-17T11:22:00.097Z,4.60
2023-03-17T11:27:16.103Z,4.70
2023-03-17T11:32:31.753Z,4.60
2023-03-17T11:37:49.337Z,4.20
2023-03-17T11:43:01.358Z,4.50
2023-03-17T11:48:21.664Z,3.90
2023-03-17T11:54:02.244Z,4.10
2023-03-17T11:59:35.456Z,3.60
2023-03-17T12:04:55.972Z,3.40
2023-03-17T12:10:26.720Z,6.90
2023-03-17T12:15:38.152Z,6.80
2023-03-17T12:20:54.541Z,5.60
2023-03-17T12:26:07.269Z,5.00
2023-03-17T12:31:18.703Z,3.40
2023-03-17T12:36:23.064Z,3.10
2023-03-17T12:41:49.354Z,3.40
2023-03-17T12:47:07.205Z,3.10
2023-03-17T12:52:34.067Z,2.70
2023-03-17T12:57:48.120Z,2.80
2023-03-17T13:03:23.809Z,2.50
2023-03-17T13:08:33.768Z,3.90
2023-03-17T13:13:55.729Z,3.40
2023-03-17T13:19:19.810Z,3.30
2023-03-17T13:24:36.336Z,3.40
2023-03-17T13:29:43.559Z,3.50
2023-03-17T13:34:56.161Z,3.60
2023-03-17T13:40:10.842Z,3.90
2023-03-17T13:45:37.703Z,4.00
2023-03-17T13:50:43.195Z,3.70
2023-03-17T13:56:09.386Z,3.80
2023-03-17T14:01:14.433Z,3.40
2023-03-17T14:06:20.055Z,3.70
2023-03-17T14:11:33.892Z,4.60
2023-03-17T14:16:45.245Z,4.30
2023-03-17T14:21:48.805Z,5.20
2023-03-17T14:26:53.344Z,4.80
2023-03-17T14:32:12.319Z,5.30
2023-03-17T14:37:15.735Z,4.20
2023-03-17T14:42:31.256Z,4.20
2023-03-17T14:47:41.914Z,4.00
2023-03-17T14:52:45.652Z,3.80
2023-03-17T14:57:52.024Z,4.20
2023-03-17T15:02:57.081Z,3.30
2023-03-17T15:08:00.900Z,3.30
2023-03-17T15:13:06.485Z,3.90
2023-03-17T15:18:14.175Z,3.60
2023-03-17T15:23:23.840Z,4.80
2023-03-17T15:28:31.681Z,4.10
2023-03-17T15:33:40.716Z,4.00
2023-03-17T15:38:44.009Z,4.80
2023-03-17T15:43:47.943Z,4.20
2023-03-17T15:48:51.651Z,5.80
2023-03-17T15:53:54.979Z,6.30
2023-03-17T15:58:58.168Z,6.90
2023-03-17T16:04:02.248Z,5.80
2023-03-17T16:09:13.896Z,5.60
2023-03-17T16:14:17.317Z,5.40
2023-03-17T16:19:24.716Z,5.00
2023-03-17T16:24:28.642Z,5.60
2023-03-17T16:29:31.853Z,5.00
2023-03-17T16:34:35.164Z,7.00
2023-03-17T16:39:38.472Z,4.90
2023-03-17T16:44:41.824Z,5.40
2023-03-17T16:49:45.104Z,4.80
2023-03-17T16:59:53.153Z,5.10
2023-03-17T17:04:56.284Z,5.20
2023-03-17T17:09:59.466Z,5.30
2023-03-17T17:15:02.776Z,4.70
2023-03-17T17:20:20.134Z,5.40
2023-03-17T17:25:24.444Z,4.80
2023-03-17T17:30:29.725Z,4.90
2023-03-17T17:35:33.723Z,5.40
2023-03-17T17:40:37.673Z,4.60
2023-03-17T17:45:42.451Z,4.10
2023-03-17T17:50:46.531Z,5.10
2023-03-17T17:55:50.769Z,5.60
2023-03-17T18:00:57.293Z,5.50
2023-03-17T18:06:01.391Z,4.80
2023-03-17T18:11:04.695Z,5.60
2023-03-17T18:16:10.202Z,5.60
2023-03-17T18:21:13.875Z,4.90
2023-03-17T18:26:18.537Z,5.10
2023-03-17T18:31:40.440Z,5.90
2023-03-17T18:36:46.965Z,5.20
2023-03-17T18:41:50.571Z,6.00
2023-03-17T18:46:53.927Z,6.20
2023-03-17T18:51:59.658Z,6.10
2023-03-17T18:57:03.055Z,6.00
2023-03-17T19:02:07.039Z,7.20
2023-03-17T19:07:10.302Z,6.70
2023-03-17T19:12:14.390Z,6.70
2023-03-17T19:17:18.357Z,6.50
2023-03-17T19:22:21.553Z,6.10
2023-03-17T19:27:24.890Z,7.50
2023-03-17T19:32:29.455Z,6.40
2023-03-17T19:42:36.651Z,6.10
2023-03-17T19:47:40.984Z,4.90
2023-03-17T19:52:46.265Z,7.60
2023-03-17T19:57:49.545Z,7.10
2023-03-17T20:02:53.766Z,7.00
2023-03-17T20:07:57.392Z,7.00
2023-03-17T20:13:00.725Z,6.00
2023-03-17T20:18:04.329Z,7.90
2023-03-17T20:23:07.633Z,8.60
2023-03-17T20:28:12.274Z,8.20
2023-03-17T20:33:15.692Z,8.90
2023-03-17T20:38:19.724Z,9.10
2023-03-17T20:43:23.170Z,10.10
2023-03-17T20:48:26.749Z,8.70
2023-03-17T20:53:30.568Z,7.40
2023-03-17T20:58:34.648Z,8.90
2023-03-17T21:03:38.524Z,9.80
2023-03-17T21:08:42.755Z,7.60
2023-03-17T21:13:46.781Z,7.80
2023-03-17T21:18:51.219Z,7.10
2023-03-17T21:23:55.763Z,8.20
2023-03-17T21:28:59.067Z,7.70
2023-03-17T21:34:02.284Z,7.40
2023-03-17T21:39:06.129Z,6.60
2023-03-17T21:44:10.130Z,7.40
2023-03-17T21:49:16.336Z,6.50
2023-03-17T21:54:20.743Z,7.00
2023-03-17T22:04:28.753Z,6.80
2023-03-17T22:09:32.109Z,6.70
2023-03-17T22:14:36.165Z,6.60
2023-03-17T22:19:42.628Z,7.10
2023-03-17T22:24:46.143Z,6.60
2023-03-17T22:29:49.449Z,7.00
2023-03-17T22:34:53.381Z,6.80
2023-03-17T22:40:02.522Z,5.10
2023-03-17T22:45:06.781Z,7.60
2023-03-17T22:50:10.991Z,6.90
2023-03-17T22:55:15.125Z,7.10
2023-03-17T23:00:19.019Z,7.10
2023-03-17T23:05:22.255Z,6.90
2023-03-17T23:10:25.671Z,7.60
2023-03-17T23:15:29.243Z,6.90
2023-03-17T23:20:33.590Z,6.90
2023-03-17T23:25:38.595Z,6.60
2023-03-17T23:30:43.346Z,7.30
2023-03-17T23:35:46.637Z,6.90
2023-03-17T23:40:50.443Z,4.90
2023-03-17T23:45:54.281Z,7.50
2023-03-17T23:50:57.791Z,7.40
2023-03-17T23:56:01.603Z,7.50
